sensor_id;sensor_type;location;lat;lon;timestamp;P1;durP1;ratioP1;P2;durP2;ratioP2
13321;SDS011;6730;46.248;6.930;2024-01-15T00:01:55;9.23;;;5.80;;
13321;SDS011;6730;46.248;6.930;2024-01-15T00:04:21;10.83;;;6.03;;
13321;SDS011;6730;46.248;6.930;2024-01-15T00:06:47;9.00;;;5.43;;
13321;SDS011;6730;46.248;6.930;2024-01-15T00:09:12;8.57;;;5.50;;
13321;SDS011;6730;46.248;6.930;2024-01-15T00:11:38;10.80;;;6.00;;
13321;SDS011;6730;46.248;6.930;2024-01-15T00:14:04;11.07;;;4.53;;
13321;SDS011;6730;46.248;6.930;2024-01-15T00:16:29;8.47;;;4.87;;
13321;SDS011;6730;46.248;6.930;2024-01-15T00:18:55;5.40;;;3.37;;
13321;SDS011;6730;46.248;6.930;2024-01-15T00:21:21;4.13;;;2.93;;
13321;SDS011;6730;46.248;6.930;2024-01-15T00:23:46;3.67;;;2.67;;
13321;SDS011;6730;46.248;6.930;2024-01-15T00:26:12;5.43;;;3.17;;
13321;SDS011;6730;46.248;6.930;2024-01-15T00:28:38;5.37;;;3.17;;
13321;SDS011;6730;46.248;6.930;2024-01-15T00:31:04;3.97;;;2.40;;
13321;SDS011;6730;46.248;6.930;2024-01-15T00:33:30;3.67;;;2.40;;
13321;SDS011;6730;46.248;6.930;2024-01-15T00:35:56;3.07;;;2.13;;
13321;SDS011;6730;46.248;6.930;2024-01-15T00:38:22;2.87;;;2.10;;
13321;SDS011;6730;46.248;6.930;2024-01-15T00:40:47;3.13;;;2.00;;
13321;SDS011;6730;46.248;6.930;2024-01-15T00:43:13;2.93;;;1.77;;
13321;SDS011;6730;46.248;6.930;2024-01-15T00:45:39;2.20;;;1.70;;
13321;SDS011;6730;46.248;6.930;2024-01-15T00:48:05;2.93;;;1.90;;
13321;SDS011;6730;46.248;6.930;2024-01-15T00:50:31;4.37;;;1.90;;
13321;SDS011;6730;46.248;6.930;2024-01-15T00:52:57;4.10;;;1.77;;
13321;SDS011;6730;46.248;6.930;2024-01-15T00:55:23;1.60;;;1.37;;
13321;SDS011;6730;46.248;6.930;2024-01-15T00:57:48;1.67;;;1.40;;
13321;SDS011;6730;46.248;6.930;2024-01-15T01:00:14;1.87;;;1.30;;
13321;SDS011;6730;46.248;6.930;2024-01-15T01:02:40;2.90;;;2.10;;
13321;SDS011;6730;46.248;6.930;2024-01-15T01:05:05;4.40;;;2.77;;
13321;SDS011;6730;46.248;6.930;2024-01-15T01:07:31;3.67;;;2.27;;
13321;SDS011;6730;46.248;6.930;2024-01-15T01:09:57;3.93;;;2.70;;
13321;SDS011;6730;46.248;6.930;2024-01-15T01:12:22;3.80;;;2.90;;
13321;SDS011;6730;46.248;6.930;2024-01-15T01:14:48;4.60;;;3.30;;
13321;SDS011;6730;46.248;6.930;2024-01-15T01:17:14;6.73;;;3.87;;
13321;SDS011;6730;46.248;6.930;2024-01-15T01:19:39;10.27;;;5.30;;
13321;SDS011;6730;46.248;6.930;2024-01-15T01:22:05;5.73;;;3.20;;
13321;SDS011;6730;46.248;6.930;2024-01-15T01:24:31;6.20;;;3.30;;
13321;SDS011;6730;46.248;6.930;2024-01-15T01:26:56;5.30;;;3.60;;
13321;SDS011;6730;46.248;6.930;2024-01-15T01:29:22;6.80;;;4.67;;
13321;SDS011;6730;46.248;6.930;2024-01-15T01:31:48;7.03;;;4.80;;
13321;SDS011;6730;46.248;6.930;2024-01-15T01:34:14;7.57;;;5.10;;
13321;SDS011;6730;46.248;6.930;2024-01-15T01:36:40;10.27;;;5.37;;
13321;SDS011;6730;46.248;6.930;2024-01-15T01:39:06;7.23;;;4.57;;
13321;SDS011;6730;46.248;6.930;2024-01-15T01:41:32;12.47;;;6.90;;
13321;SDS011;6730;46.248;6.930;2024-01-15T01:43:58;7.80;;;4.80;;
13321;SDS011;6730;46.248;6.930;2024-01-15T01:46:24;8.90;;;5.63;;
13321;SDS011;6730;46.248;6.930;2024-01-15T01:48:51;8.43;;;6.07;;
13321;SDS011;6730;46.248;6.930;2024-01-15T01:51:17;12.40;;;6.73;;
13321;SDS011;6730;46.248;6.930;2024-01-15T01:53:44;8.70;;;5.50;;
13321;SDS011;6730;46.248;6.930;2024-01-15T01:56:10;10.43;;;6.83;;
13321;SDS011;6730;46.248;6.930;2024-01-15T01:58:37;9.60;;;6.70;;
13321;SDS011;6730;46.248;6.930;2024-01-15T02:01:02;6.67;;;4.33;;
13321;SDS011;6730;46.248;6.930;2024-01-15T02:03:29;5.43;;;3.83;;
13321;SDS011;6730;46.248;6.930;2024-01-15T02:05:56;7.37;;;3.93;;
13321;SDS011;6730;46.248;6.930;2024-01-15T02:08:22;6.60;;;3.50;;
13321;SDS011;6730;46.248;6.930;2024-01-15T02:10:47;6.13;;;4.30;;
13321;SDS011;6730;46.248;6.930;2024-01-15T02:13:13;7.07;;;4.57;;
13321;SDS011;6730;46.248;6.930;2024-01-15T02:15:40;7.57;;;5.30;;
13321;SDS011;6730;46.248;6.930;2024-01-15T02:18:06;7.33;;;4.97;;
13321;SDS011;6730;46.248;6.930;2024-01-15T02:20:33;7.37;;;4.77;;
13321;SDS011;6730;46.248;6.930;2024-01-15T02:23:07;6.90;;;4.67;;
13321;SDS011;6730;46.248;6.930;2024-01-15T02:25:34;7.90;;;4.30;;
13321;SDS011;6730;46.248;6.930;2024-01-15T02:28:01;8.83;;;5.03;;
13321;SDS011;6730;46.248;6.930;2024-01-15T02:30:28;7.90;;;5.27;;
13321;SDS011;6730;46.248;6.930;2024-01-15T02:32:54;8.40;;;4.90;;
13321;SDS011;6730;46.248;6.930;2024-01-15T02:35:20;7.07;;;5.07;;
13321;SDS011;6730;46.248;6.930;2024-01-15T02:37:46;7.87;;;4.70;;
13321;SDS011;6730;46.248;6.930;2024-01-15T02:40:11;7.40;;;5.10;;
13321;SDS011;6730;46.248;6.930;2024-01-15T02:42:37;8.37;;;4.57;;
13321;SDS011;6730;46.248;6.930;2024-01-15T02:45:03;7.10;;;4.87;;
13321;SDS011;6730;46.248;6.930;2024-01-15T02:47:32;8.73;;;5.20;;
13321;SDS011;6730;46.248;6.930;2024-01-15T02:49:57;8.33;;;4.37;;
13321;SDS011;6730;46.248;6.930;2024-01-15T02:52:23;7.47;;;4.87;;
13321;SDS011;6730;46.248;6.930;2024-01-15T02:54:48;6.30;;;4.20;;
13321;SDS011;6730;46.248;6.930;2024-01-15T02:57:14;5.77;;;4.40;;
13321;SDS011;6730;46.248;6.930;2024-01-15T02:59:40;6.30;;;4.30;;
13321;SDS011;6730;46.248;6.930;2024-01-15T03:02:05;7.27;;;4.13;;
13321;SDS011;6730;46.248;6.930;2024-01-15T03:04:31;5.27;;;3.73;;
13321;SDS011;6730;46.248;6.930;2024-01-15T03:06:56;7.73;;;4.13;;
13321;SDS011;6730;46.248;6.930;2024-01-15T03:09:22;4.23;;;3.57;;
13321;SDS011;6730;46.248;6.930;2024-01-15T03:11:48;6.60;;;4.77;;
13321;SDS011;6730;46.248;6.930;2024-01-15T03:14:14;5.83;;;4.10;;
13321;SDS011;6730;46.248;6.930;2024-01-15T03:16:39;4.93;;;4.37;;
13321;SDS011;6730;46.248;6.930;2024-01-15T03:19:05;5.17;;;3.70;;
13321;SDS011;6730;46.248;6.930;2024-01-15T03:21:31;4.30;;;3.37;;
13321;SDS011;6730;46.248;6.930;2024-01-15T03:23:56;4.10;;;3.43;;
13321;SDS011;6730;46.248;6.930;2024-01-15T03:26:22;5.37;;;3.83;;
13321;SDS011;6730;46.248;6.930;2024-01-15T03:28:48;4.73;;;3.47;;
13321;SDS011;6730;46.248;6.930;2024-01-15T03:31:13;3.93;;;3.03;;
13321;SDS011;6730;46.248;6.930;2024-01-15T03:33:39;3.93;;;3.17;;
13321;SDS011;6730;46.248;6.930;2024-01-15T03:36:05;3.43;;;2.70;;
13321;SDS011;6730;46.248;6.930;2024-01-15T03:38:31;3.33;;;2.80;;
13321;SDS011;6730;46.248;6.930;2024-01-15T03:40:56;5.03;;;2.47;;
13321;SDS011;6730;46.248;6.930;2024-01-15T03:43:22;2.93;;;2.63;;
13321;SDS011;6730;46.248;6.930;2024-01-15T03:45:47;4.47;;;3.33;;
13321;SDS011;6730;46.248;6.930;2024-01-15T03:48:13;3.17;;;2.80;;
13321;SDS011;6730;46.248;6.930;2024-01-15T03:50:39;4.37;;;2.60;;
13321;SDS011;6730;46.248;6.930;2024-01-15T03:53:04;2.80;;;2.50;;
13321;SDS011;6730;46.248;6.930;2024-01-15T03:55:30;3.70;;;3.10;;
13321;SDS011;6730;46.248;6.930;2024-01-15T03:57:56;3.43;;;2.50;;
13321;SDS011;6730;46.248;6.930;2024-01-15T04:00:22;4.27;;;2.97;;
13321;SDS011;6730;46.248;6.930;2024-01-15T04:02:47;3.97;;;2.80;;
13321;SDS011;6730;46.248;6.930;2024-01-15T04:05:13;3.03;;;2.70;;
13321;SDS011;6730;46.248;6.930;2024-01-15T04:07:39;3.87;;;2.80;;
13321;SDS011;6730;46.248;6.930;2024-01-15T04:10:04;4.10;;;2.87;;
13321;SDS011;6730;46.248;6.930;2024-01-15T04:12:30;4.00;;;3.17;;
13321;SDS011;6730;46.248;6.930;2024-01-15T04:14:56;4.50;;;3.30;;
13321;SDS011;6730;46.248;6.930;2024-01-15T04:17:22;3.17;;;2.70;;
13321;SDS011;6730;46.248;6.930;2024-01-15T04:19:47;3.97;;;2.73;;
13321;SDS011;6730;46.248;6.930;2024-01-15T04:22:13;2.97;;;2.37;;
13321;SDS011;6730;46.248;6.930;2024-01-15T04:24:39;5.03;;;2.73;;
13321;SDS011;6730;46.248;6.930;2024-01-15T04:27:05;3.30;;;2.47;;
13321;SDS011;6730;46.248;6.930;2024-01-15T04:29:32;4.73;;;2.67;;
13321;SDS011;6730;46.248;6.930;2024-01-15T04:31:57;2.97;;;2.23;;
13321;SDS011;6730;46.248;6.930;2024-01-15T04:34:23;2.43;;;1.97;;
13321;SDS011;6730;46.248;6.930;2024-01-15T04:36:48;3.23;;;2.17;;
13321;SDS011;6730;46.248;6.930;2024-01-15T04:39:14;2.63;;;2.10;;
13321;SDS011;6730;46.248;6.930;2024-01-15T04:41:40;4.57;;;2.53;;
13321;SDS011;6730;46.248;6.930;2024-01-15T04:44:05;3.20;;;2.23;;
13321;SDS011;6730;46.248;6.930;2024-01-15T04:46:31;3.07;;;2.33;;
13321;SDS011;6730;46.248;6.930;2024-01-15T04:48:57;3.17;;;2.27;;
13321;SDS011;6730;46.248;6.930;2024-01-15T04:51:23;2.87;;;2.10;;
13321;SDS011;6730;46.248;6.930;2024-01-15T04:53:48;2.53;;;2.00;;
13321;SDS011;6730;46.248;6.930;2024-01-15T04:56:14;2.63;;;1.90;;
13321;SDS011;6730;46.248;6.930;2024-01-15T04:58:39;3.80;;;2.30;;
13321;SDS011;6730;46.248;6.930;2024-01-15T05:01:05;3.07;;;1.80;;
13321;SDS011;6730;46.248;6.930;2024-01-15T05:03:32;2.43;;;1.97;;
13321;SDS011;6730;46.248;6.930;2024-01-15T05:05:58;2.67;;;1.80;;
13321;SDS011;6730;46.248;6.930;2024-01-15T05:08:24;2.97;;;2.07;;
13321;SDS011;6730;46.248;6.930;2024-01-15T05:10:49;3.13;;;2.00;;
13321;SDS011;6730;46.248;6.930;2024-01-15T05:13:15;1.83;;;1.43;;
13321;SDS011;6730;46.248;6.930;2024-01-15T05:15:40;1.73;;;1.60;;
13321;SDS011;6730;46.248;6.930;2024-01-15T05:18:06;3.77;;;1.90;;
13321;SDS011;6730;46.248;6.930;2024-01-15T05:20:32;2.50;;;1.90;;
13321;SDS011;6730;46.248;6.930;2024-01-15T05:22:57;3.37;;;1.70;;
13321;SDS011;6730;46.248;6.930;2024-01-15T05:25:23;2.17;;;1.50;;
13321;SDS011;6730;46.248;6.930;2024-01-15T05:27:48;3.10;;;1.70;;
13321;SDS011;6730;46.248;6.930;2024-01-15T05:30:14;1.70;;;1.50;;
13321;SDS011;6730;46.248;6.930;2024-01-15T05:32:41;2.40;;;1.57;;
13321;SDS011;6730;46.248;6.930;2024-01-15T05:35:07;2.13;;;1.60;;
13321;SDS011;6730;46.248;6.930;2024-01-15T05:37:33;2.57;;;1.70;;
13321;SDS011;6730;46.248;6.930;2024-01-15T05:39:58;3.37;;;1.87;;
13321;SDS011;6730;46.248;6.930;2024-01-15T05:42:24;2.20;;;2.00;;
13321;SDS011;6730;46.248;6.930;2024-01-15T05:44:49;1.67;;;1.43;;
13321;SDS011;6730;46.248;6.930;2024-01-15T05:47:15;2.43;;;1.70;;
13321;SDS011;6730;46.248;6.930;2024-01-15T05:49:41;2.57;;;1.73;;
13321;SDS011;6730;46.248;6.930;2024-01-15T05:52:06;2.33;;;1.70;;
13321;SDS011;6730;46.248;6.930;2024-01-15T05:54:32;3.20;;;1.67;;
13321;SDS011;6730;46.248;6.930;2024-01-15T05:56:58;2.23;;;1.30;;
13321;SDS011;6730;46.248;6.930;2024-01-15T05:59:23;2.43;;;1.60;;
13321;SDS011;6730;46.248;6.930;2024-01-15T06:01:50;1.93;;;1.43;;
13321;SDS011;6730;46.248;6.930;2024-01-15T06:04:16;2.13;;;1.70;;
13321;SDS011;6730;46.248;6.930;2024-01-15T06:06:41;2.20;;;1.80;;
13321;SDS011;6730;46.248;6.930;2024-01-15T06:09:07;2.47;;;2.00;;
13321;SDS011;6730;46.248;6.930;2024-01-15T06:11:34;2.50;;;1.90;;
13321;SDS011;6730;46.248;6.930;2024-01-15T06:13:59;2.70;;;1.93;;
13321;SDS011;6730;46.248;6.930;2024-01-15T06:16:28;2.27;;;1.70;;
13321;SDS011;6730;46.248;6.930;2024-01-15T06:18:54;3.40;;;2.00;;
13321;SDS011;6730;46.248;6.930;2024-01-15T06:21:20;2.20;;;1.70;;
13321;SDS011;6730;46.248;6.930;2024-01-15T06:23:45;1.67;;;1.57;;
13321;SDS011;6730;46.248;6.930;2024-01-15T06:26:11;2.97;;;1.70;;
13321;SDS011;6730;46.248;6.930;2024-01-15T06:28:37;2.23;;;1.63;;
13321;SDS011;6730;46.248;6.930;2024-01-15T06:31:03;3.23;;;1.83;;
13321;SDS011;6730;46.248;6.930;2024-01-15T06:33:29;2.70;;;1.40;;
13321;SDS011;6730;46.248;6.930;2024-01-15T06:35:54;2.93;;;1.77;;
13321;SDS011;6730;46.248;6.930;2024-01-15T06:38:21;1.60;;;1.50;;
13321;SDS011;6730;46.248;6.930;2024-01-15T06:40:53;2.13;;;1.60;;
13321;SDS011;6730;46.248;6.930;2024-01-15T06:43:18;1.87;;;1.70;;
13321;SDS011;6730;46.248;6.930;2024-01-15T06:45:44;3.60;;;1.90;;
13321;SDS011;6730;46.248;6.930;2024-01-15T06:48:10;2.43;;;1.83;;
13321;SDS011;6730;46.248;6.930;2024-01-15T06:50:39;2.33;;;1.70;;
13321;SDS011;6730;46.248;6.930;2024-01-15T06:53:05;2.33;;;1.80;;
13321;SDS011;6730;46.248;6.930;2024-01-15T06:55:31;1.60;;;1.50;;
13321;SDS011;6730;46.248;6.930;2024-01-15T06:57:56;2.07;;;1.83;;
13321;SDS011;6730;46.248;6.930;2024-01-15T07:00:22;2.40;;;1.77;;
13321;SDS011;6730;46.248;6.930;2024-01-15T07:02:47;2.83;;;1.63;;
13321;SDS011;6730;46.248;6.930;2024-01-15T07:05:13;2.00;;;1.80;;
13321;SDS011;6730;46.248;6.930;2024-01-15T07:07:39;2.13;;;1.90;;
13321;SDS011;6730;46.248;6.930;2024-01-15T07:10:05;3.43;;;1.70;;
13321;SDS011;6730;46.248;6.930;2024-01-15T07:12:31;2.20;;;1.60;;
13321;SDS011;6730;46.248;6.930;2024-01-15T07:14:56;1.93;;;1.50;;
13321;SDS011;6730;46.248;6.930;2024-01-15T07:17:22;3.63;;;1.93;;
13321;SDS011;6730;46.248;6.930;2024-01-15T07:19:48;2.13;;;1.73;;
13321;SDS011;6730;46.248;6.930;2024-01-15T07:22:14;2.93;;;1.60;;
13321;SDS011;6730;46.248;6.930;2024-01-15T07:24:42;2.37;;;1.67;;
13321;SDS011;6730;46.248;6.930;2024-01-15T07:27:08;2.93;;;1.90;;
13321;SDS011;6730;46.248;6.930;2024-01-15T07:29:34;2.20;;;1.87;;
13321;SDS011;6730;46.248;6.930;2024-01-15T07:32:03;2.47;;;1.90;;
13321;SDS011;6730;46.248;6.930;2024-01-15T07:34:29;2.40;;;1.87;;
13321;SDS011;6730;46.248;6.930;2024-01-15T07:36:56;2.70;;;1.93;;
13321;SDS011;6730;46.248;6.930;2024-01-15T07:39:22;2.50;;;2.00;;
13321;SDS011;6730;46.248;6.930;2024-01-15T07:41:49;1.97;;;1.60;;
13321;SDS011;6730;46.248;6.930;2024-01-15T07:44:18;4.47;;;1.70;;
13321;SDS011;6730;46.248;6.930;2024-01-15T07:46:44;1.77;;;1.57;;
13321;SDS011;6730;46.248;6.930;2024-01-15T07:49:11;2.63;;;1.80;;
13321;SDS011;6730;46.248;6.930;2024-01-15T07:51:36;3.27;;;1.97;;
13321;SDS011;6730;46.248;6.930;2024-01-15T07:54:05;2.27;;;1.60;;
13321;SDS011;6730;46.248;6.930;2024-01-15T07:56:32;2.27;;;1.70;;
13321;SDS011;6730;46.248;6.930;2024-01-15T07:58:58;3.03;;;1.80;;
13321;SDS011;6730;46.248;6.930;2024-01-15T08:01:24;2.33;;;1.60;;
13321;SDS011;6730;46.248;6.930;2024-01-15T08:03:49;1.83;;;1.30;;
13321;SDS011;6730;46.248;6.930;2024-01-15T08:06:15;2.50;;;1.80;;
13321;SDS011;6730;46.248;6.930;2024-01-15T08:08:41;1.73;;;1.63;;
13321;SDS011;6730;46.248;6.930;2024-01-15T08:11:06;2.23;;;1.70;;
13321;SDS011;6730;46.248;6.930;2024-01-15T08:13:32;3.03;;;1.87;;
13321;SDS011;6730;46.248;6.930;2024-01-15T08:15:58;1.57;;;1.47;;
13321;SDS011;6730;46.248;6.930;2024-01-15T08:18:24;1.87;;;1.67;;
13321;SDS011;6730;46.248;6.930;2024-01-15T08:20:50;2.43;;;1.70;;
13321;SDS011;6730;46.248;6.930;2024-01-15T08:23:17;2.87;;;1.97;;
13321;SDS011;6730;46.248;6.930;2024-01-15T08:25:42;2.93;;;1.83;;
13321;SDS011;6730;46.248;6.930;2024-01-15T08:28:08;2.20;;;1.83;;
13321;SDS011;6730;46.248;6.930;2024-01-15T08:30:34;3.03;;;1.87;;
13321;SDS011;6730;46.248;6.930;2024-01-15T08:32:59;3.57;;;2.00;;
13321;SDS011;6730;46.248;6.930;2024-01-15T08:35:25;3.07;;;1.70;;
13321;SDS011;6730;46.248;6.930;2024-01-15T08:37:52;5.20;;;1.73;;
13321;SDS011;6730;46.248;6.930;2024-01-15T08:40:18;2.90;;;1.87;;
13321;SDS011;6730;46.248;6.930;2024-01-15T08:42:44;1.90;;;1.70;;
13321;SDS011;6730;46.248;6.930;2024-01-15T08:45:12;4.43;;;2.00;;
13321;SDS011;6730;46.248;6.930;2024-01-15T08:47:38;2.57;;;1.90;;
13321;SDS011;6730;46.248;6.930;2024-01-15T08:50:04;1.90;;;1.70;;
13321;SDS011;6730;46.248;6.930;2024-01-15T08:52:30;2.60;;;2.00;;
13321;SDS011;6730;46.248;6.930;2024-01-15T08:54:56;3.00;;;1.80;;
13321;SDS011;6730;46.248;6.930;2024-01-15T08:57:22;2.50;;;1.80;;
13321;SDS011;6730;46.248;6.930;2024-01-15T08:59:48;3.07;;;1.80;;
13321;SDS011;6730;46.248;6.930;2024-01-15T09:02:14;2.83;;;2.13;;
13321;SDS011;6730;46.248;6.930;2024-01-15T09:04:40;6.43;;;3.30;;
13321;SDS011;6730;46.248;6.930;2024-01-15T09:07:07;5.20;;;3.33;;
13321;SDS011;6730;46.248;6.930;2024-01-15T09:09:32;3.70;;;3.07;;
13321;SDS011;6730;46.248;6.930;2024-01-15T09:11:59;4.30;;;2.70;;
13321;SDS011;6730;46.248;6.930;2024-01-15T09:14:24;4.20;;;3.17;;
13321;SDS011;6730;46.248;6.930;2024-01-15T09:16:52;8.13;;;4.80;;
13321;SDS011;6730;46.248;6.930;2024-01-15T09:19:18;4.83;;;3.20;;
13321;SDS011;6730;46.248;6.930;2024-01-15T09:21:43;3.47;;;2.87;;
13321;SDS011;6730;46.248;6.930;2024-01-15T09:24:09;5.60;;;4.10;;
13321;SDS011;6730;46.248;6.930;2024-01-15T09:26:35;5.43;;;3.67;;
13321;SDS011;6730;46.248;6.930;2024-01-15T09:29:00;6.87;;;4.70;;
13321;SDS011;6730;46.248;6.930;2024-01-15T09:31:27;6.07;;;4.50;;
13321;SDS011;6730;46.248;6.930;2024-01-15T09:33:53;4.10;;;3.57;;
13321;SDS011;6730;46.248;6.930;2024-01-15T09:36:23;4.10;;;2.97;;
13321;SDS011;6730;46.248;6.930;2024-01-15T09:38:49;3.83;;;3.43;;
13321;SDS011;6730;46.248;6.930;2024-01-15T09:41:15;4.27;;;3.53;;
13321;SDS011;6730;46.248;6.930;2024-01-15T09:43:40;4.53;;;3.50;;
13321;SDS011;6730;46.248;6.930;2024-01-15T09:46:07;7.73;;;4.10;;
13321;SDS011;6730;46.248;6.930;2024-01-15T09:48:33;4.50;;;3.30;;
13321;SDS011;6730;46.248;6.930;2024-01-15T09:51:00;5.20;;;3.30;;
13321;SDS011;6730;46.248;6.930;2024-01-15T09:53:27;5.23;;;2.97;;
13321;SDS011;6730;46.248;6.930;2024-01-15T09:55:53;4.73;;;3.27;;
13321;SDS011;6730;46.248;6.930;2024-01-15T09:58:18;3.40;;;3.10;;
13321;SDS011;6730;46.248;6.930;2024-01-15T10:00:46;3.60;;;2.77;;
13321;SDS011;6730;46.248;6.930;2024-01-15T10:03:12;4.90;;;3.30;;
13321;SDS011;6730;46.248;6.930;2024-01-15T10:05:38;5.20;;;2.97;;
13321;SDS011;6730;46.248;6.930;2024-01-15T10:08:04;4.07;;;3.20;;
13321;SDS011;6730;46.248;6.930;2024-01-15T10:10:30;5.47;;;3.63;;
13321;SDS011;6730;46.248;6.930;2024-01-15T10:12:56;4.20;;;3.80;;
13321;SDS011;6730;46.248;6.930;2024-01-15T10:15:27;4.70;;;3.03;;
13321;SDS011;6730;46.248;6.930;2024-01-15T10:17:53;5.57;;;4.17;;
13321;SDS011;6730;46.248;6.930;2024-01-15T10:20:19;3.20;;;2.80;;
13321;SDS011;6730;46.248;6.930;2024-01-15T10:22:47;6.87;;;3.80;;
13321;SDS011;6730;46.248;6.930;2024-01-15T10:25:13;5.97;;;3.90;;
13321;SDS011;6730;46.248;6.930;2024-01-15T10:27:43;7.27;;;4.57;;
13321;SDS011;6730;46.248;6.930;2024-01-15T10:30:09;5.07;;;3.83;;
13321;SDS011;6730;46.248;6.930;2024-01-15T10:32:35;5.37;;;3.70;;
13321;SDS011;6730;46.248;6.930;2024-01-15T10:35:01;6.87;;;4.53;;
13321;SDS011;6730;46.248;6.930;2024-01-15T10:37:30;5.07;;;3.87;;
13321;SDS011;6730;46.248;6.930;2024-01-15T10:39:58;6.57;;;4.50;;
13321;SDS011;6730;46.248;6.930;2024-01-15T10:42:26;4.60;;;3.70;;
13321;SDS011;6730;46.248;6.930;2024-01-15T10:44:51;21.60;;;13.83;;
13321;SDS011;6730;46.248;6.930;2024-01-15T10:47:17;8.33;;;6.20;;
13321;SDS011;6730;46.248;6.930;2024-01-15T10:49:44;7.07;;;5.27;;
13321;SDS011;6730;46.248;6.930;2024-01-15T10:52:10;5.20;;;3.80;;
13321;SDS011;6730;46.248;6.930;2024-01-15T10:54:37;4.97;;;3.37;;
13321;SDS011;6730;46.248;6.930;2024-01-15T10:57:03;5.97;;;4.07;;
13321;SDS011;6730;46.248;6.930;2024-01-15T10:59:30;4.43;;;3.10;;
13321;SDS011;6730;46.248;6.930;2024-01-15T11:01:57;6.37;;;4.50;;
13321;SDS011;6730;46.248;6.930;2024-01-15T11:04:24;4.50;;;3.33;;
13321;SDS011;6730;46.248;6.930;2024-01-15T11:06:53;4.37;;;3.27;;
13321;SDS011;6730;46.248;6.930;2024-01-15T11:09:20;6.43;;;4.10;;
13321;SDS011;6730;46.248;6.930;2024-01-15T11:11:46;4.20;;;3.10;;
13321;SDS011;6730;46.248;6.930;2024-01-15T11:17:08;3.03;;;2.60;;
13321;SDS011;6730;46.248;6.930;2024-01-15T11:19:35;3.00;;;2.37;;
13321;SDS011;6730;46.248;6.930;2024-01-15T11:24:55;3.60;;;3.20;;
13321;SDS011;6730;46.248;6.930;2024-01-15T11:28:06;3.90;;;3.27;;
13321;SDS011;6730;46.248;6.930;2024-01-15T11:30:17;4.50;;;3.23;;
13321;SDS011;6730;46.248;6.930;2024-01-15T11:32:45;6.07;;;3.30;;
13321;SDS011;6730;46.248;6.930;2024-01-15T11:35:11;5.63;;;4.07;;
13321;SDS011;6730;46.248;6.930;2024-01-15T11:40:20;3.23;;;2.93;;
13321;SDS011;6730;46.248;6.930;2024-01-15T11:42:46;4.77;;;3.43;;
13321;SDS011;6730;46.248;6.930;2024-01-15T11:45:15;4.73;;;3.73;;
13321;SDS011;6730;46.248;6.930;2024-01-15T11:48:01;5.80;;;3.47;;
13321;SDS011;6730;46.248;6.930;2024-01-15T11:50:35;3.73;;;2.87;;
13321;SDS011;6730;46.248;6.930;2024-01-15T11:53:15;4.30;;;3.50;;
13321;SDS011;6730;46.248;6.930;2024-01-15T11:56:19;5.17;;;3.63;;
13321;SDS011;6730;46.248;6.930;2024-01-15T11:58:48;4.00;;;3.27;;
13321;SDS011;6730;46.248;6.930;2024-01-15T12:01:15;4.97;;;3.07;;
13321;SDS011;6730;46.248;6.930;2024-01-15T12:03:41;3.90;;;3.37;;
13321;SDS011;6730;46.248;6.930;2024-01-15T12:06:08;4.37;;;3.77;;
13321;SDS011;6730;46.248;6.930;2024-01-15T12:08:35;6.70;;;4.03;;
13321;SDS011;6730;46.248;6.930;2024-01-15T12:11:01;4.57;;;3.27;;
13321;SDS011;6730;46.248;6.930;2024-01-15T12:13:38;5.83;;;3.30;;
13321;SDS011;6730;46.248;6.930;2024-01-15T12:16:03;3.73;;;3.23;;
13321;SDS011;6730;46.248;6.930;2024-01-15T12:18:29;4.80;;;3.53;;
13321;SDS011;6730;46.248;6.930;2024-01-15T12:20:55;4.17;;;2.93;;
13321;SDS011;6730;46.248;6.930;2024-01-15T12:23:21;4.70;;;3.17;;
13321;SDS011;6730;46.248;6.930;2024-01-15T12:25:47;4.40;;;3.23;;
13321;SDS011;6730;46.248;6.930;2024-01-15T12:28:13;4.73;;;3.40;;
13321;SDS011;6730;46.248;6.930;2024-01-15T12:30:40;4.53;;;3.20;;
13321;SDS011;6730;46.248;6.930;2024-01-15T12:33:06;4.00;;;3.03;;
13321;SDS011;6730;46.248;6.930;2024-01-15T12:35:33;3.93;;;3.03;;
13321;SDS011;6730;46.248;6.930;2024-01-15T12:38:02;3.80;;;2.40;;
13321;SDS011;6730;46.248;6.930;2024-01-15T12:40:28;3.13;;;2.63;;
13321;SDS011;6730;46.248;6.930;2024-01-15T12:42:54;2.83;;;2.17;;
13321;SDS011;6730;46.248;6.930;2024-01-15T12:45:20;4.23;;;2.77;;
13321;SDS011;6730;46.248;6.930;2024-01-15T12:47:45;3.40;;;2.73;;
13321;SDS011;6730;46.248;6.930;2024-01-15T12:50:12;3.07;;;2.60;;
13321;SDS011;6730;46.248;6.930;2024-01-15T12:52:39;5.97;;;3.77;;
13321;SDS011;6730;46.248;6.930;2024-01-15T12:55:06;4.97;;;3.40;;
13321;SDS011;6730;46.248;6.930;2024-01-15T12:57:34;3.20;;;2.57;;
13321;SDS011;6730;46.248;6.930;2024-01-15T13:00:00;3.90;;;3.00;;
13321;SDS011;6730;46.248;6.930;2024-01-15T13:02:26;3.27;;;2.80;;
13321;SDS011;6730;46.248;6.930;2024-01-15T13:04:52;3.70;;;3.00;;
13321;SDS011;6730;46.248;6.930;2024-01-15T13:07:19;6.13;;;4.37;;
13321;SDS011;6730;46.248;6.930;2024-01-15T13:09:45;5.73;;;3.40;;
13321;SDS011;6730;46.248;6.930;2024-01-15T13:12:10;6.43;;;4.10;;
13321;SDS011;6730;46.248;6.930;2024-01-15T13:14:36;6.40;;;4.07;;
13321;SDS011;6730;46.248;6.930;2024-01-15T13:17:02;5.63;;;4.20;;
13321;SDS011;6730;46.248;6.930;2024-01-15T13:19:28;18.43;;;13.17;;
13321;SDS011;6730;46.248;6.930;2024-01-15T13:21:54;7.80;;;6.00;;
13321;SDS011;6730;46.248;6.930;2024-01-15T13:24:21;6.80;;;5.40;;
13321;SDS011;6730;46.248;6.930;2024-01-15T13:26:47;5.27;;;4.30;;
13321;SDS011;6730;46.248;6.930;2024-01-15T13:29:14;5.70;;;3.90;;
13321;SDS011;6730;46.248;6.930;2024-01-15T13:31:40;4.90;;;3.87;;
13321;SDS011;6730;46.248;6.930;2024-01-15T13:34:06;3.90;;;3.07;;
13321;SDS011;6730;46.248;6.930;2024-01-15T13:36:32;4.43;;;3.40;;
13321;SDS011;6730;46.248;6.930;2024-01-15T13:38:58;4.37;;;2.60;;
13321;SDS011;6730;46.248;6.930;2024-01-15T13:41:24;5.23;;;3.57;;
13321;SDS011;6730;46.248;6.930;2024-01-15T13:43:52;5.27;;;3.43;;
13321;SDS011;6730;46.248;6.930;2024-01-15T13:46:22;6.63;;;4.27;;
13321;SDS011;6730;46.248;6.930;2024-01-15T13:48:49;3.13;;;2.37;;
13321;SDS011;6730;46.248;6.930;2024-01-15T13:51:15;4.30;;;2.87;;
13321;SDS011;6730;46.248;6.930;2024-01-15T13:53:40;3.40;;;2.93;;
13321;SDS011;6730;46.248;6.930;2024-01-15T13:56:06;4.60;;;3.33;;
13321;SDS011;6730;46.248;6.930;2024-01-15T13:58:34;5.37;;;3.23;;
13321;SDS011;6730;46.248;6.930;2024-01-15T14:01:00;5.60;;;3.33;;
13321;SDS011;6730;46.248;6.930;2024-01-15T14:03:26;2.03;;;1.90;;
13321;SDS011;6730;46.248;6.930;2024-01-15T14:05:52;3.77;;;2.27;;
13321;SDS011;6730;46.248;6.930;2024-01-15T14:08:17;2.77;;;2.03;;
13321;SDS011;6730;46.248;6.930;2024-01-15T14:10:43;2.50;;;2.20;;
13321;SDS011;6730;46.248;6.930;2024-01-15T14:13:09;2.97;;;2.60;;
13321;SDS011;6730;46.248;6.930;2024-01-15T14:15:35;2.50;;;2.30;;
13321;SDS011;6730;46.248;6.930;2024-01-15T14:18:00;3.47;;;2.23;;
13321;SDS011;6730;46.248;6.930;2024-01-15T14:20:26;2.50;;;1.70;;
13321;SDS011;6730;46.248;6.930;2024-01-15T14:22:52;2.90;;;2.33;;
13321;SDS011;6730;46.248;6.930;2024-01-15T14:25:19;4.53;;;2.87;;
13321;SDS011;6730;46.248;6.930;2024-01-15T14:27:45;5.03;;;2.97;;
13321;SDS011;6730;46.248;6.930;2024-01-15T14:30:11;4.00;;;3.10;;
13321;SDS011;6730;46.248;6.930;2024-01-15T14:32:38;2.87;;;2.60;;
13321;SDS011;6730;46.248;6.930;2024-01-15T14:35:04;4.17;;;3.47;;
13321;SDS011;6730;46.248;6.930;2024-01-15T14:37:30;4.73;;;3.07;;
13321;SDS011;6730;46.248;6.930;2024-01-15T14:39:56;3.83;;;3.00;;
13321;SDS011;6730;46.248;6.930;2024-01-15T14:42:22;4.80;;;3.27;;
13321;SDS011;6730;46.248;6.930;2024-01-15T14:44:49;3.77;;;2.97;;
13321;SDS011;6730;46.248;6.930;2024-01-15T14:47:14;4.80;;;3.53;;
13321;SDS011;6730;46.248;6.930;2024-01-15T14:49:40;4.47;;;3.37;;
13321;SDS011;6730;46.248;6.930;2024-01-15T14:52:06;3.63;;;3.20;;
13321;SDS011;6730;46.248;6.930;2024-01-15T14:54:32;6.60;;;3.53;;
13321;SDS011;6730;46.248;6.930;2024-01-15T14:56:57;5.23;;;3.30;;
13321;SDS011;6730;46.248;6.930;2024-01-15T14:59:23;4.83;;;3.43;;
13321;SDS011;6730;46.248;6.930;2024-01-15T15:01:49;5.33;;;3.23;;
13321;SDS011;6730;46.248;6.930;2024-01-15T15:04:14;3.87;;;3.27;;